Hub


Voltar

 INFORMAÇÕES METEOROLÓGICAS

METAR FOR KBYH


ADDS - METARS form results

(2025 UTC 17 January 2019)
Data provider http://aviationweather.gov/metar/data/
 
METAR text: KBYH 171954Z 26004KT 3/4SM -DZBR OVC003 11/10 A3002
Conditions at: KBYH (BLYTHEVILLE , AR, US) observed 1954 UTC 17 January 2019
Temperature: 11.0°C (52°F)
Dewpoint: 10.0°C (50°F) [RH = 94%]
Pressure (altimeter): 30.02 inches Hg (1016.7 mb)
Winds: from the W (260 degrees) at 5 MPH (4 knots; 2.1 m/s)
Visibility: 0.75 miles (1.21 km)
Ceiling: 300 feet AGL
Clouds: overcast cloud deck at 300 feet AGL
Weather: -DZ BR  (light drizzle, mist)


 MAPA DO AEROPORTO


 INFORMAÇÕES DA PISTA

Pista 18 Tamanho da pista 11602 ft Largura da pista 150 ft
Elevação da pista 250 ft Ranhura da pista 0 ft Proa da pista 180
Pista 36 Tamanho da pista 11602 ft Largura da pista 150 ft
Elevação da pista 252 ft Ranhura da pista 0 ft Proa da pista 360

 FREQUÊNCIAS DO AEROPORTO

Tipo CNTR Nome MEMPHIS CN Frequência 134.65 MHZ
Tipo UNIC Nome CTAF/UNICO Frequência 122.7 MHZ

 AUXÍLIOS DE NAVEGAÇÃO PRÓXIMOS AO AEROPORTO

Tipo VOR Nome Gosnell Frequência 111800 KHZ